Time;durP1;ratioP1;P1;durP2;ratioP2;P2;SDS_P1;SDS_P2;PMS_P1;PMS_P2;Temp;Humidity;BMP_temperature;BMP_pressure;BME280_temperature;BME280_humidity;BME280_pressure;Samples;Min_cycle;Max_cycle;Signal;HPM_P1;HPM_P2
2023/09/29 00:01:38;;;;;;;14.60;13.20;;;18.00;99.90;;;;;;5051151;28;20419;-69
2023/09/29 00:04:05;;;;;;;16.20;14.33;;;17.90;99.90;;;;;;5050996;28;20923;-69
2023/09/29 00:06:32;;;;;;;19.70;16.07;;;18.00;99.90;;;;;;5050868;28;20454;-69
2023/09/29 00:08:59;;;;;;;19.37;15.70;;;18.00;99.90;;;;;;5051535;28;20410;-69
2023/09/29 00:11:25;;;;;;;17.30;15.40;;;17.90;99.90;;;;;;5051981;28;20483;-69
2023/09/29 00:13:51;;;;;;;21.97;15.00;;;17.90;99.90;;;;;;5051563;28;20435;-69
2023/09/29 00:16:16;;;;;;;15.80;14.20;;;17.90;99.90;;;;;;5051082;28;20520;-69
2023/09/29 00:18:42;;;;;;;16.73;13.30;;;17.80;99.90;;;;;;5089013;22;20224;-71
2023/09/29 00:21:08;;;;;;;18.10;13.63;;;17.80;99.90;;;;;;5081999;28;20201;-70
2023/09/29 00:23:35;;;;;;;18.10;14.80;;;17.80;99.90;;;;;;5081379;28;20178;-70
2023/09/29 00:26:00;;;;;;;16.13;14.63;;;17.80;99.90;;;;;;5090328;28;20177;-70
2023/09/29 00:28:27;;;;;;;16.93;14.70;;;17.70;99.90;;;;;;5062704;28;20461;-69
2023/09/29 00:30:52;;;;;;;27.80;19.37;;;17.70;99.90;;;;;;5070210;28;20197;-71
2023/09/29 00:33:18;;;;;;;19.60;15.33;;;17.70;99.90;;;;;;5063156;28;20778;-69
2023/09/29 00:35:44;;;;;;;20.67;16.37;;;17.70;99.90;;;;;;5052360;28;20179;-69
2023/09/29 00:38:10;;;;;;;24.20;15.67;;;17.70;99.90;;;;;;5051945;28;20923;-68
2023/09/29 00:40:35;;;;;;;18.47;16.43;;;17.70;99.90;;;;;;5069682;28;20640;-68
2023/09/29 00:43:03;;;;;;;19.10;15.97;;;17.70;99.90;;;;;;5069859;28;20172;-69
2023/09/29 00:45:29;;;;;;;18.37;16.27;;;17.70;99.90;;;;;;5069903;28;20564;-69
2023/09/29 00:47:59;;;;;;;17.10;15.30;;;17.70;99.90;;;;;;5051831;28;20452;-70
2023/09/29 00:50:29;;;;;;;18.20;15.50;;;17.70;99.90;;;;;;5070158;28;20416;-70
2023/09/29 00:53:05;;;;;;;17.90;16.03;;;17.70;99.90;;;;;;5070007;28;20411;-71
2023/09/29 00:55:32;;;;;;;16.97;14.57;;;17.70;99.90;;;;;;5069895;28;20415;-70
2023/09/29 00:57:59;;;;;;;17.27;15.30;;;17.70;99.90;;;;;;5052422;28;20544;-71
2023/09/29 01:02:54;;;;;;;20.03;16.37;;;17.60;99.90;;;;;;5041799;28;20454;-70
2023/09/29 01:05:19;;;;;;;17.00;15.20;;;17.60;99.90;;;;;;5056846;28;20511;-69
2023/09/29 01:07:46;;;;;;;15.87;14.13;;;17.60;99.90;;;;;;5067515;28;20217;-70
2023/09/29 01:10:13;;;;;;;18.50;16.70;;;17.60;99.90;;;;;;5049769;28;20170;-69
2023/09/29 01:12:40;;;;;;;17.37;15.43;;;17.60;99.90;;;;;;5049915;28;20691;-69
2023/09/29 01:15:06;;;;;;;18.03;15.47;;;17.60;99.90;;;;;;5049583;28;20927;-70
2023/09/29 01:17:32;;;;;;;17.23;15.00;;;17.60;99.90;;;;;;5049817;28;20441;-70
2023/09/29 01:19:58;;;;;;;16.83;15.03;;;17.50;99.90;;;;;;5030629;28;20476;-71
2023/09/29 01:22:24;;;;;;;17.43;15.63;;;17.50;99.90;;;;;;5065923;28;20182;-71
2023/09/29 01:24:49;;;;;;;15.20;13.70;;;17.50;99.90;;;;;;5051357;28;20490;-70
2023/09/29 01:27:15;;;;;;;15.67;13.83;;;17.50;99.90;;;;;;5049622;28;20417;-69
2023/09/29 01:29:44;;;;;;;15.67;14.07;;;17.50;99.90;;;;;;5049748;28;20257;-68
2023/09/29 01:32:14;;;;;;;19.70;14.87;;;17.50;99.90;;;;;;5049599;28;20171;-68
2023/09/29 01:34:40;;;;;;;17.63;14.40;;;17.50;99.90;;;;;;5059981;28;20424;-69
2023/09/29 01:37:07;;;;;;;17.97;16.07;;;17.40;99.90;;;;;;5060240;28;20895;-69
2023/09/29 01:39:33;;;;;;;15.67;14.07;;;17.40;99.90;;;;;;5053140;28;20475;-69
2023/09/29 01:41:59;;;;;;;17.27;14.80;;;17.40;99.90;;;;;;5053353;28;20417;-70
2023/09/29 01:44:25;;;;;;;17.13;15.37;;;17.40;99.90;;;;;;5053244;28;20190;-69
2023/09/29 01:46:51;;;;;;;16.23;14.40;;;17.30;99.90;;;;;;5052734;28;20945;-69
2023/09/29 01:49:16;;;;;;;14.80;13.23;;;17.30;99.90;;;;;;5052724;28;20190;-69
2023/09/29 01:51:45;;;;;;;15.37;13.77;;;17.30;99.90;;;;;;5052933;28;20172;-69
2023/09/29 01:54:10;;;;;;;18.67;13.53;;;17.40;99.90;;;;;;5052598;28;20254;-70
2023/09/29 01:56:36;;;;;;;15.97;14.33;;;17.30;99.90;;;;;;5061963;28;20526;-70
2023/09/29 01:59:02;;;;;;;15.30;13.70;;;17.40;99.90;;;;;;5072808;28;20275;-70
2023/09/29 02:01:29;;;;;;;14.10;12.80;;;17.30;99.90;;;;;;5072744;28;20227;-69
2023/09/29 02:03:55;;;;;;;14.77;13.23;;;17.30;99.90;;;;;;5061185;28;20450;-68
2023/09/29 02:06:20;;;;;;;14.47;13.00;;;17.30;99.90;;;;;;5052475;28;20450;-70
2023/09/29 02:08:46;;;;;;;16.03;14.50;;;17.30;99.90;;;;;;5052594;28;20196;-69
2023/09/29 02:11:12;;;;;;;14.70;13.17;;;17.20;99.90;;;;;;5052517;28;20176;-69
2023/09/29 02:13:38;;;;;;;14.53;13.03;;;17.20;99.90;;;;;;5070047;28;20168;-69
2023/09/29 02:16:10;;;;;;;15.50;13.17;;;17.30;99.90;;;;;;5059694;28;20172;-69
2023/09/29 02:18:36;;;;;;;14.07;12.43;;;17.30;99.90;;;;;;5052157;28;20460;-70
2023/09/29 02:21:06;;;;;;;16.70;13.43;;;17.20;99.90;;;;;;5052476;28;20412;-69
2023/09/29 02:23:33;;;;;;;13.57;12.30;;;17.20;99.90;;;;;;5052313;28;20692;-69
2023/09/29 02:26:00;;;;;;;15.30;13.73;;;17.20;99.90;;;;;;5052541;28;20483;-69
2023/09/29 02:28:30;;;;;;;19.00;12.60;;;17.20;99.90;;;;;;5052122;28;20484;-69
2023/09/29 02:31:00;;;;;;;13.50;12.17;;;17.20;99.90;;;;;;5034131;28;20420;-69
2023/09/29 02:33:27;;;;;;;19.43;13.43;;;17.20;99.90;;;;;;5059196;28;20420;-69
2023/09/29 02:35:52;;;;;;;15.13;12.73;;;17.20;99.90;;;;;;5071794;28;20427;-69
2023/09/29 02:38:18;;;;;;;18.13;13.40;;;17.20;99.90;;;;;;5057541;28;20430;-69
2023/09/29 02:40:46;;;;;;;14.47;12.90;;;17.20;99.90;;;;;;5051951;28;20186;-69
2023/09/29 02:43:12;;;;;;;17.27;14.87;;;17.20;99.90;;;;;;5051904;28;20617;-69
2023/09/29 02:45:40;;;;;;;14.40;12.90;;;17.20;99.90;;;;;;5051825;28;20495;-69
2023/09/29 02:48:06;;;;;;;15.63;14.13;;;17.20;99.90;;;;;;5071628;28;20209;-69
2023/09/29 02:50:35;;;;;;;16.63;14.13;;;17.10;99.90;;;;;;5037012;28;20421;-68
2023/09/29 02:53:07;;;;;;;14.83;12.70;;;17.10;99.90;;;;;;5071537;28;20906;-68
2023/09/29 02:55:33;;;;;;;16.30;14.57;;;17.10;99.90;;;;;;5055309;28;20904;-69
2023/09/29 02:57:59;;;;;;;14.53;13.20;;;17.10;99.90;;;;;;5063041;28;20452;-69
2023/09/29 03:00:27;;;;;;;14.63;12.90;;;17.10;99.90;;;;;;5071400;28;20175;-69
2023/09/29 03:02:52;;;;;;;15.10;13.60;;;17.10;99.90;;;;;;5071861;28;20192;-69
2023/09/29 03:05:21;;;;;;;19.50;13.47;;;17.10;99.90;;;;;;5071274;28;20406;-69
2023/09/29 03:07:47;;;;;;;15.57;14.07;;;17.10;99.90;;;;;;5062994;28;20271;-69
2023/09/29 03:10:14;;;;;;;21.93;15.10;;;17.10;99.90;;;;;;5065971;28;20496;-69
2023/09/29 03:12:41;;;;;;;15.53;13.80;;;17.10;99.90;;;;;;5051042;28;20416;-70
2023/09/29 03:15:08;;;;;;;15.97;14.37;;;17.00;99.90;;;;;;5063812;28;20778;-69
2023/09/29 03:17:34;;;;;;;16.37;14.70;;;17.00;99.90;;;;;;5070906;28;20505;-69
2023/09/29 03:20:00;;;;;;;15.90;14.40;;;17.00;99.90;;;;;;5067666;28;20412;-70
2023/09/29 03:22:25;;;;;;;17.10;13.40;;;16.90;99.90;;;;;;5066341;28;20473;-69
2023/09/29 03:24:51;;;;;;;20.83;15.77;;;16.90;99.90;;;;;;5070936;28;20485;-69
2023/09/29 03:27:17;;;;;;;16.90;15.20;;;16.90;99.90;;;;;;5070862;28;20660;-69
2023/09/29 03:29:43;;;;;;;16.37;14.63;;;16.90;99.90;;;;;;5070773;28;20170;-69
2023/09/29 03:32:09;;;;;;;16.77;14.40;;;16.90;99.90;;;;;;5070732;28;20403;-69
2023/09/29 03:34:35;;;;;;;16.50;14.97;;;16.80;99.90;;;;;;5070674;28;20417;-70
2023/09/29 03:37:00;;;;;;;15.93;14.43;;;16.90;99.90;;;;;;5070771;28;20172;-69
2023/09/29 03:39:26;;;;;;;15.20;13.70;;;16.80;99.90;;;;;;5070660;28;20296;-69
2023/09/29 03:41:51;;;;;;;16.13;14.50;;;16.80;99.90;;;;;;5070617;28;20264;-70
2023/09/29 03:44:17;;;;;;;16.60;14.83;;;16.70;99.90;;;;;;5070495;28;20174;-69
2023/09/29 03:46:44;;;;;;;18.53;15.37;;;16.70;99.90;;;;;;5070579;28;20231;-70
2023/09/29 03:49:12;;;;;;;16.30;14.60;;;16.70;99.90;;;;;;5070693;28;20568;-69
2023/09/29 03:51:38;;;;;;;13.47;12.17;;;16.70;99.90;;;;;;5070852;28;20495;-71
2023/09/29 03:54:04;;;;;;;16.90;14.43;;;16.60;99.90;;;;;;5071261;28;20794;-68
2023/09/29 03:56:29;;;;;;;17.70;14.40;;;16.60;99.90;;;;;;5070369;28;20422;-70
2023/09/29 03:58:55;;;;;;;16.87;15.17;;;16.60;99.90;;;;;;5070232;28;20547;-70
2023/09/29 04:01:21;;;;;;;17.87;15.97;;;16.60;99.90;;;;;;5070984;28;20265;-70
2023/09/29 04:03:47;;;;;;;16.07;14.37;;;16.60;99.90;;;;;;5070668;28;20174;-69
2023/09/29 04:06:14;;;;;;;16.10;14.50;;;16.60;99.90;;;;;;5071049;28;20706;-70
2023/09/29 04:08:40;;;;;;;15.33;13.93;;;16.50;99.90;;;;;;5073555;28;20716;-70
2023/09/29 04:11:07;;;;;;;15.50;13.93;;;16.50;99.90;;;;;;5074209;28;20507;-69
2023/09/29 04:13:33;;;;;;;16.10;14.60;;;16.50;99.90;;;;;;5066166;28;20413;-70
2023/09/29 04:16:03;;;;;;;16.90;14.33;;;16.50;99.90;;;;;;5053491;28;20461;-70
2023/09/29 04:18:29;;;;;;;18.10;15.37;;;16.50;99.90;;;;;;5052507;28;20942;-70
2023/09/29 04:20:55;;;;;;;17.33;13.73;;;16.50;99.90;;;;;;5069280;28;20424;-70
2023/09/29 04:23:20;;;;;;;16.93;15.23;;;16.40;99.90;;;;;;5070288;28;20415;-69
2023/09/29 04:25:46;;;;;;;18.63;15.57;;;16.40;99.90;;;;;;5070257;28;20617;-69
2023/09/29 04:28:12;;;;;;;15.70;14.10;;;16.40;99.90;;;;;;5070178;28;20204;-70
2023/09/29 04:30:38;;;;;;;15.83;13.57;;;16.40;99.90;;;;;;5070379;28;20422;-69
2023/09/29 04:33:04;;;;;;;15.23;13.63;;;16.40;99.90;;;;;;5070233;28;20204;-69
2023/09/29 04:35:29;;;;;;;14.30;12.87;;;16.40;99.90;;;;;;5070189;28;20653;-69
2023/09/29 04:37:55;;;;;;;20.03;15.13;;;16.40;99.90;;;;;;5070187;28;20454;-70
2023/09/29 04:40:21;;;;;;;16.07;14.47;;;16.40;99.90;;;;;;5070705;28;20216;-71
2023/09/29 04:42:47;;;;;;;15.97;14.20;;;16.40;99.90;;;;;;5070947;28;20224;-71
2023/09/29 04:45:12;;;;;;;15.13;13.70;;;16.40;99.90;;;;;;5071127;28;20177;-71
2023/09/29 04:47:38;;;;;;;13.07;11.63;;;16.40;99.90;;;;;;5070950;28;20651;-71
2023/09/29 04:50:05;;;;;;;13.27;11.93;;;16.40;99.90;;;;;;5070467;28;20275;-70
2023/09/29 04:52:31;;;;;;;16.57;12.83;;;16.40;99.90;;;;;;5070103;28;20510;-70
2023/09/29 04:54:58;;;;;;;12.43;11.30;;;16.30;99.90;;;;;;5070125;28;20434;-70
2023/09/29 04:57:23;;;;;;;13.30;12.00;;;16.30;99.90;;;;;;5070417;28;20481;-69
2023/09/29 04:59:49;;;;;;;17.00;15.27;;;16.30;99.90;;;;;;5069940;28;20183;-70
2023/09/29 05:02:15;;;;;;;14.57;13.17;;;16.20;99.90;;;;;;5069982;28;20169;-70
2023/09/29 05:04:41;;;;;;;14.40;12.90;;;16.30;99.90;;;;;;5070031;28;20506;-70
2023/09/29 05:07:06;;;;;;;17.30;12.90;;;16.30;99.90;;;;;;5069929;28;20277;-70
2023/09/29 05:09:32;;;;;;;12.47;11.27;;;16.30;99.90;;;;;;5072410;28;20268;-74
2023/09/29 05:11:57;;;;;;;13.70;12.40;;;16.20;99.90;;;;;;5073454;28;20179;-68
2023/09/29 05:14:24;;;;;;;14.87;13.27;;;16.30;99.90;;;;;;5073525;28;20179;-70
2023/09/29 05:16:50;;;;;;;16.50;12.73;;;16.30;99.90;;;;;;5073501;28;20176;-68
2023/09/29 05:19:16;;;;;;;16.13;13.13;;;16.20;99.90;;;;;;5073470;28;20457;-68
2023/09/29 05:21:42;;;;;;;15.43;11.87;;;16.30;99.90;;;;;;5057455;28;20202;-69
2023/09/29 05:24:08;;;;;;;15.10;13.50;;;16.20;99.90;;;;;;5053770;28;20507;-70
2023/09/29 05:26:34;;;;;;;15.00;13.40;;;16.20;99.90;;;;;;5053810;28;20176;-70
2023/09/29 05:29:00;;;;;;;16.90;13.50;;;16.30;99.90;;;;;;5054034;28;20439;-69
2023/09/29 05:31:26;;;;;;;14.47;13.03;;;16.30;99.90;;;;;;5053991;28;20614;-69
2023/09/29 05:33:54;;;;;;;13.33;11.97;;;16.30;99.90;;;;;;5054663;28;20531;-69
2023/09/29 05:36:21;;;;;;;15.13;11.57;;;16.30;99.90;;;;;;5073679;28;20420;-69
2023/09/29 05:38:47;;;;;;;15.50;14.00;;;16.30;99.90;;;;;;5073181;28;20435;-70
2023/09/29 05:41:12;;;;;;;13.27;11.87;;;16.40;99.90;;;;;;5061101;28;20979;-69
2023/09/29 05:43:38;;;;;;;13.90;11.90;;;16.40;99.90;;;;;;5053549;28;20926;-69
2023/09/29 05:46:03;;;;;;;14.13;11.80;;;16.40;99.90;;;;;;5053392;28;20269;-68
2023/09/29 05:48:29;;;;;;;13.20;11.80;;;16.40;99.90;;;;;;5053609;28;20220;-69
2023/09/29 05:50:55;;;;;;;13.57;11.27;;;16.50;99.90;;;;;;5053658;28;20176;-70
2023/09/29 05:53:21;;;;;;;13.40;11.13;;;16.60;99.90;;;;;;5053464;28;20197;-71
2023/09/29 05:55:46;;;;;;;13.00;10.50;;;16.80;99.90;;;;;;5052985;28;20516;-70
2023/09/29 05:58:12;;;;;;;10.43;9.43;;;16.90;99.90;;;;;;5053042;28;20211;-70
2023/09/29 06:00:39;;;;;;;13.10;11.20;;;17.00;99.90;;;;;;5052741;28;20179;-70
2023/09/29 06:03:05;;;;;;;12.33;10.90;;;17.20;99.90;;;;;;5053077;28;20464;-71
2023/09/29 06:05:31;;;;;;;11.83;10.73;;;17.40;99.90;;;;;;5052730;28;20434;-70
2023/09/29 06:07:57;;;;;;;12.73;11.00;;;17.50;99.90;;;;;;5062799;28;20208;-71
2023/09/29 06:10:23;;;;;;;11.67;10.47;;;17.80;99.90;;;;;;5064653;28;20415;-69
2023/09/29 06:12:48;;;;;;;11.40;9.27;;;17.90;99.90;;;;;;5052911;28;20181;-70
2023/09/29 06:15:14;;;;;;;11.00;9.90;;;18.20;99.90;;;;;;5056871;28;20414;-70
2023/09/29 06:17:40;;;;;;;11.50;9.70;;;18.20;99.90;;;;;;5054590;28;20299;-71
2023/09/29 06:20:06;;;;;;;10.30;9.20;;;18.30;99.90;;;;;;5054132;28;20612;-70
2023/09/29 06:22:34;;;;;;;13.27;8.67;;;18.30;99.90;;;;;;5052600;28;20186;-70
2023/09/29 06:25:00;;;;;;;11.50;9.70;;;18.30;99.90;;;;;;5052313;28;20968;-69
2023/09/29 06:27:27;;;;;;;9.43;8.53;;;18.40;99.90;;;;;;5052406;28;20551;-70
2023/09/29 06:29:53;;;;;;;11.00;8.23;;;18.60;99.90;;;;;;5089988;22;20525;-70
2023/09/29 06:32:19;;;;;;;13.57;9.80;;;18.90;99.90;;;;;;5078267;28;20430;-70
2023/09/29 06:34:45;;;;;;;11.83;10.40;;;19.10;99.90;;;;;;5093723;28;20178;-71
2023/09/29 06:37:11;;;;;;;14.43;8.00;;;18.90;99.90;;;;;;5078561;28;20183;-70
2023/09/29 06:39:37;;;;;;;15.40;9.80;;;18.80;99.90;;;;;;5066102;28;20437;-71
2023/09/29 06:42:03;;;;;;;9.37;8.50;;;18.80;99.90;;;;;;5053787;28;20806;-71
2023/09/29 06:44:30;;;;;;;9.10;8.20;;;19.00;99.90;;;;;;5053493;28;20483;-71
2023/09/29 06:46:56;;;;;;;9.57;8.67;;;18.80;99.90;;;;;;5052962;28;20494;-71
2023/09/29 06:49:21;;;;;;;9.17;8.20;;;18.90;99.90;;;;;;5053241;28;20522;-71
2023/09/29 06:51:48;;;;;;;13.03;9.13;;;19.00;99.90;;;;;;5070055;28;20181;-72
2023/09/29 06:54:14;;;;;;;9.57;8.10;;;19.10;99.90;;;;;;5072918;28;20169;-72
2023/09/29 06:56:39;;;;;;;11.53;7.80;;;19.70;99.90;;;;;;5072927;28;20416;-70
2023/09/29 06:59:05;;;;;;;9.80;7.50;;;20.00;99.90;;;;;;5073135;28;20769;-72
2023/09/29 07:01:32;;;;;;;11.47;8.13;;;20.30;99.90;;;;;;5072677;28;20234;-71
2023/09/29 07:03:58;;;;;;;8.43;7.63;;;20.40;99.90;;;;;;5072619;28;20632;-70
2023/09/29 07:06:24;;;;;;;12.50;8.47;;;20.50;99.90;;;;;;5072771;28;20419;-71
2023/09/29 07:08:50;;;;;;;10.07;8.40;;;20.60;99.90;;;;;;5072378;28;20215;-70
2023/09/29 07:11:16;;;;;;;11.23;7.47;;;20.80;99.90;;;;;;5054652;28;20445;-70
2023/09/29 07:13:41;;;;;;;11.13;7.17;;;20.60;99.90;;;;;;5052535;28;20184;-71
2023/09/29 07:16:07;;;;;;;9.03;8.20;;;21.20;99.90;;;;;;5052524;28;20177;-72
2023/09/29 07:18:33;;;;;;;10.57;7.67;;;20.70;99.90;;;;;;5052490;28;20224;-71
2023/09/29 07:20:58;;;;;;;8.87;7.30;;;20.60;99.90;;;;;;5052229;28;20701;-70
2023/09/29 07:23:24;;;;;;;10.27;7.10;;;20.50;99.90;;;;;;5052188;28;20196;-71
2023/09/29 07:25:52;;;;;;;8.60;7.83;;;20.60;99.90;;;;;;5052228;28;20228;-72
2023/09/29 07:28:22;;;;;;;9.70;7.03;;;21.10;99.90;;;;;;5052189;28;20200;-70
2023/09/29 07:30:48;;;;;;;9.53;7.67;;;21.50;99.90;;;;;;5052195;28;20424;-74
2023/09/29 07:33:14;;;;;;;8.20;7.20;;;21.70;99.90;;;;;;5052479;28;20496;-74
2023/09/29 07:35:42;;;;;;;11.40;7.63;;;21.50;99.90;;;;;;5052934;28;20959;-75
2023/09/29 07:38:08;;;;;;;9.23;8.17;;;21.50;99.90;;;;;;5052182;28;20173;-75
2023/09/29 07:40:34;;;;;;;7.93;7.13;;;21.30;99.90;;;;;;5052544;28;20447;-74
2023/09/29 07:43:01;;;;;;;8.00;6.93;;;21.40;99.90;;;;;;5052600;28;20177;-73
2023/09/29 07:45:27;;;;;;;7.70;7.10;;;21.70;99.90;;;;;;5057675;28;20411;-74
2023/09/29 07:47:53;;;;;;;7.27;6.60;;;22.10;99.90;;;;;;5072508;28;20536;-74
2023/09/29 07:50:19;;;;;;;10.63;7.80;;;22.10;99.90;;;;;;5073205;28;20431;-75
2023/09/29 07:52:45;;;;;;;9.07;8.17;;;22.20;99.90;;;;;;5072633;28;20177;-74
2023/09/29 07:55:11;;;;;;;6.70;6.10;;;21.90;99.90;;;;;;5072497;28;20778;-74
2023/09/29 07:57:37;;;;;;;9.77;7.10;;;22.50;99.90;;;;;;5072533;28;20408;-74
2023/09/29 08:00:10;;;;;;;6.93;5.93;;;22.80;99.90;;;;;;5055595;28;20436;-75
2023/09/29 08:02:35;;;;;;;9.43;6.17;;;23.00;99.90;;;;;;5054093;28;20443;-74
2023/09/29 08:05:02;;;;;;;6.67;6.07;;;23.30;99.90;;;;;;5071903;28;20430;-74
2023/09/29 08:07:28;;;;;;;9.10;7.00;;;23.20;99.90;;;;;;5072284;28;20206;-73
2023/09/29 08:09:53;;;;;;;7.07;5.70;;;23.00;99.90;;;;;;5065915;28;20448;-74
2023/09/29 08:12:19;;;;;;;7.13;6.20;;;23.20;99.90;;;;;;5053591;28;20645;-75
2023/09/29 08:14:45;;;;;;;12.07;6.63;;;22.90;99.90;;;;;;5054999;28;20586;-75
2023/09/29 08:17:11;;;;;;;11.30;6.70;;;22.60;99.90;;;;;;5057034;28;20456;-74
2023/09/29 08:19:37;;;;;;;9.40;6.40;;;22.50;99.90;;;;;;5056815;28;20277;-74
2023/09/29 08:22:03;;;;;;;10.73;6.60;;;22.40;99.90;;;;;;5053091;28;20175;-74
2023/09/29 08:24:31;;;;;;;9.50;6.80;;;22.40;99.90;;;;;;5052795;28;20181;-75
2023/09/29 08:26:57;;;;;;;7.10;6.43;;;22.40;99.90;;;;;;5050780;28;20194;-73
2023/09/29 08:29:23;;;;;;;10.10;7.13;;;22.40;99.90;;;;;;5055329;28;20531;-75
2023/09/29 08:31:49;;;;;;;8.00;5.93;;;22.10;99.90;;;;;;5064310;28;20167;-74
2023/09/29 08:34:15;;;;;;;6.43;5.80;;;21.90;99.90;;;;;;5058168;28;20785;-74
2023/09/29 08:36:41;;;;;;;9.20;6.40;;;21.90;99.90;;;;;;5059076;28;20172;-73
2023/09/29 08:39:06;;;;;;;7.47;6.60;;;22.00;99.90;;;;;;5059598;28;20193;-73
2023/09/29 08:41:35;;;;;;;10.43;6.00;;;22.00;99.90;;;;;;5051581;28;20743;-74
2023/09/29 08:44:03;;;;;;;7.73;6.97;;;22.10;99.90;;;;;;5062210;28;20170;-74
2023/09/29 08:46:32;;;;;;;7.33;6.33;;;22.20;99.90;;;;;;5075450;28;20411;-74
2023/09/29 08:49:00;;;;;;;9.30;6.30;;;22.00;99.90;;;;;;5075463;28;20426;-73
2023/09/29 08:51:27;;;;;;;6.80;5.23;;;22.20;99.90;;;;;;5068268;28;20831;-74
2023/09/29 08:53:55;;;;;;;6.77;5.60;;;22.10;99.90;;;;;;5055550;28;20426;-73
2023/09/29 08:56:21;;;;;;;7.37;5.83;;;22.10;99.90;;;;;;5038067;28;20399;-74
2023/09/29 08:58:46;;;;;;;7.33;6.60;;;22.10;99.90;;;;;;5055793;28;20819;-74
2023/09/29 09:01:13;;;;;;;7.00;5.87;;;22.10;99.90;;;;;;5055580;28;20179;-75
2023/09/29 09:03:39;;;;;;;7.53;6.03;;;22.30;99.90;;;;;;5055347;28;20180;-73
2023/09/29 09:06:24;;;;;;;9.50;6.43;;;22.30;99.90;;;;;;5055167;28;20532;-74
2023/09/29 09:08:51;;;;;;;6.07;5.47;;;22.20;99.90;;;;;;5062998;28;20203;-73
2023/09/29 09:11:17;;;;;;;5.83;5.00;;;22.30;99.90;;;;;;5057299;28;20408;-74
2023/09/29 09:13:53;;;;;;;6.07;4.90;;;22.30;99.90;;;;;;5075071;28;20976;-74
2023/09/29 09:16:19;;;;;;;7.60;5.17;;;22.40;99.90;;;;;;5075303;28;21010;-74
2023/09/29 09:18:44;;;;;;;5.90;5.40;;;22.30;99.90;;;;;;5057079;28;20448;-74
2023/09/29 09:21:12;;;;;;;5.67;5.13;;;22.00;99.90;;;;;;5075040;28;20272;-73
2023/09/29 09:23:37;;;;;;;7.73;6.37;;;22.00;99.90;;;;;;5056976;28;20171;-74
2023/09/29 09:26:15;;;;;;;8.17;5.80;;;22.10;99.90;;;;;;5074218;28;20918;-74
2023/09/29 09:28:41;;;;;;;8.80;5.87;;;22.30;99.90;;;;;;5074406;28;20546;-75
2023/09/29 09:31:07;;;;;;;8.23;5.87;;;22.30;99.90;;;;;;5074468;28;20415;-75
2023/09/29 09:33:34;;;;;;;6.80;5.97;;;22.30;99.90;;;;;;5074414;28;20493;-75
2023/09/29 09:36:09;;;;;;;7.53;5.67;;;22.10;99.90;;;;;;5074416;28;20415;-75
2023/09/29 09:38:36;;;;;;;5.90;5.40;;;22.10;99.90;;;;;;5074194;28;20765;-74
2023/09/29 09:41:03;;;;;;;7.17;5.53;;;22.00;99.90;;;;;;5074033;28;20437;-74
2023/09/29 09:43:29;;;;;;;8.97;5.10;;;22.30;99.90;;;;;;5059444;28;20417;-74
2023/09/29 09:46:04;;;;;;;8.93;6.20;;;22.30;99.90;;;;;;5054494;28;20579;-74
2023/09/29 09:48:55;;;;;;;6.43;5.80;;;22.20;99.90;;;;;;5054307;28;20872;-74
2023/09/29 09:51:34;;;;;;;9.50;6.30;;;22.20;99.90;;;;;;5053980;28;20439;-75
2023/09/29 09:54:03;;;;;;;6.57;5.67;;;22.20;99.90;;;;;;5054122;28;20527;-74
2023/09/29 09:56:48;;;;;;;6.17;5.57;;;22.20;99.90;;;;;;5053038;28;20459;-74
2023/09/29 09:59:16;;;;;;;5.97;5.40;;;22.20;99.90;;;;;;5053756;28;20566;-74
2023/09/29 10:01:45;;;;;;;8.80;7.23;;;22.30;99.90;;;;;;5053609;28;20506;-74
2023/09/29 10:04:13;;;;;;;13.07;7.13;;;22.40;99.90;;;;;;5053888;28;20481;-74
2023/09/29 10:06:43;;;;;;;15.43;6.87;;;22.40;99.90;;;;;;5067733;28;20826;-74
2023/09/29 10:09:11;;;;;;;8.73;6.60;;;22.50;99.90;;;;;;5073794;28;20776;-74
2023/09/29 10:11:37;;;;;;;7.13;5.80;;;22.60;99.90;;;;;;5073738;28;20415;-74
2023/09/29 10:14:05;;;;;;;7.43;5.60;;;22.60;99.90;;;;;;5073360;28;20832;-74
2023/09/29 10:16:31;;;;;;;6.63;5.00;;;22.90;99.90;;;;;;5073442;28;20422;-74
2023/09/29 10:19:05;;;;;;;6.57;6.07;;;23.00;99.90;;;;;;5073670;28;20515;-74
2023/09/29 10:21:49;;;;;;;9.70;6.10;;;23.00;99.90;;;;;;5073977;28;20542;-74
2023/09/29 10:24:27;;;;;;;6.90;5.30;;;22.90;99.90;;;;;;5073464;28;20804;-75
2023/09/29 10:26:52;;;;;;;6.83;5.17;;;22.70;99.90;;;;;;5073755;28;20529;-74
2023/09/29 10:29:38;;;;;;;7.03;5.30;;;22.80;99.90;;;;;;5073563;28;20456;-74
2023/09/29 10:32:20;;;;;;;6.30;5.30;;;23.00;99.90;;;;;;5072754;28;20267;-74
2023/09/29 10:34:48;;;;;;;8.73;5.30;;;22.90;99.90;;;;;;5073140;28;20508;-74
2023/09/29 10:37:15;;;;;;;5.37;4.87;;;23.00;99.90;;;;;;5073329;28;20418;-74
2023/09/29 10:39:44;;;;;;;5.67;5.17;;;22.80;99.90;;;;;;5073323;28;20522;-74
2023/09/29 10:42:15;;;;;;;7.40;6.10;;;22.90;99.90;;;;;;5069072;28;20476;-74
2023/09/29 10:44:55;;;;;;;6.23;5.73;;;22.90;99.90;;;;;;5053129;28;20411;-74
2023/09/29 10:47:36;;;;;;;6.03;5.53;;;23.10;99.90;;;;;;5053010;28;20558;-74
2023/09/29 10:50:11;;;;;;;6.03;5.20;;;23.20;99.90;;;;;;5053015;28;20440;-76
2023/09/29 10:52:37;;;;;;;14.33;5.60;;;23.10;99.90;;;;;;5052711;28;20418;-74
2023/09/29 10:55:11;;;;;;;10.10;5.20;;;23.40;99.90;;;;;;5052799;28;21083;-74
2023/09/29 10:57:37;;;;;;;5.57;4.80;;;23.50;99.90;;;;;;5052943;28;20205;-74
2023/09/29 11:00:05;;;;;;;5.90;4.77;;;23.30;99.90;;;;;;5052437;28;20528;-73
2023/09/29 11:02:33;;;;;;;5.20;4.70;;;23.40;99.90;;;;;;5052668;28;20416;-74
2023/09/29 11:05:05;;;;;;;6.20;5.60;;;23.50;99.90;;;;;;5052708;28;20420;-74
2023/09/29 11:07:51;;;;;;;9.40;5.07;;;23.50;99.90;;;;;;5052216;28;20823;-74
2023/09/29 11:10:18;;;;;;;8.50;5.40;;;23.90;99.90;;;;;;5052211;28;20434;-74
2023/09/29 11:12:47;;;;;;;9.40;5.60;;;23.80;99.90;;;;;;5052311;28;20420;-75
2023/09/29 11:15:14;;;;;;;9.33;5.77;;;23.80;99.90;;;;;;5034189;28;20417;-74
2023/09/29 11:17:45;;;;;;;7.50;5.10;;;23.90;99.90;;;;;;5052173;28;20427;-74
2023/09/29 11:20:29;;;;;;;6.10;5.10;;;23.90;99.90;;;;;;5052234;28;20442;-73
2023/09/29 11:23:13;;;;;;;5.43;4.93;;;23.80;99.90;;;;;;5052585;28;20414;-74
2023/09/29 11:25:48;;;;;;;6.37;5.57;;;23.70;99.90;;;;;;5052503;28;20809;-74
2023/09/29 11:28:15;;;;;;;6.40;4.77;;;23.70;99.90;;;;;;5051857;28;20455;-73
2023/09/29 11:30:42;;;;;;;5.77;5.23;;;23.50;99.90;;;;;;5052328;28;20792;-72
2023/09/29 11:33:14;;;;;;;5.60;4.90;;;23.50;99.90;;;;;;5051731;28;20762;-74
2023/09/29 11:35:45;;;;;;;5.07;4.57;;;23.50;99.90;;;;;;5052133;28;20514;-74
2023/09/29 11:38:20;;;;;;;5.63;4.87;;;23.50;99.90;;;;;;5052076;28;20431;-73
2023/09/29 11:40:50;;;;;;;9.00;5.40;;;23.50;99.90;;;;;;5051897;28;20510;-74
2023/09/29 11:43:16;;;;;;;5.77;5.10;;;23.50;99.90;;;;;;5061565;28;20485;-73
2023/09/29 11:45:43;;;;;;;8.70;5.17;;;23.60;99.90;;;;;;5071552;28;20483;-73
2023/09/29 11:48:09;;;;;;;6.73;5.73;;;23.50;99.90;;;;;;5071608;28;20465;-75
2023/09/29 11:50:35;;;;;;;8.00;5.87;;;23.40;99.90;;;;;;5071531;28;20436;-74
2023/09/29 11:53:06;;;;;;;8.47;5.20;;;23.30;99.90;;;;;;5071945;28;20663;-74
2023/09/29 11:55:35;;;;;;;9.93;5.40;;;23.30;99.90;;;;;;5071788;28;20460;-74
2023/09/29 11:58:01;;;;;;;5.70;5.13;;;23.60;99.90;;;;;;5071708;28;20404;-74
2023/09/29 12:00:27;;;;;;;5.93;5.30;;;23.50;99.90;;;;;;5071807;28;20450;-74
2023/09/29 12:02:53;;;;;;;6.63;5.97;;;23.50;99.90;;;;;;5071596;28;20499;-74
2023/09/29 12:05:19;;;;;;;9.73;6.40;;;23.50;99.90;;;;;;5071688;28;20175;-74
2023/09/29 12:07:45;;;;;;;8.17;4.43;;;23.60;99.90;;;;;;5066417;28;20545;-74
2023/09/29 12:10:11;;;;;;;7.50;6.07;;;23.80;99.90;;;;;;5051547;28;20186;-73
2023/09/29 12:12:36;;;;;;;7.97;5.20;;;23.80;99.90;;;;;;5051771;28;20179;-73
2023/09/29 12:15:03;;;;;;;6.20;5.30;;;23.90;99.90;;;;;;5051854;28;20239;-74
2023/09/29 12:17:30;;;;;;;7.00;5.20;;;23.80;99.90;;;;;;5051771;28;20177;-75
2023/09/29 12:19:55;;;;;;;6.40;5.60;;;23.70;99.90;;;;;;5028276;28;20452;-74
2023/09/29 12:22:22;;;;;;;6.37;5.50;;;23.50;99.90;;;;;;5069231;28;20766;-74
2023/09/29 12:24:48;;;;;;;4.83;4.43;;;23.50;99.90;;;;;;5071668;28;20164;-74
2023/09/29 12:27:13;;;;;;;8.80;7.30;;;23.80;99.90;;;;;;5071745;28;20451;-74
2023/09/29 12:29:39;;;;;;;6.67;5.43;;;23.80;99.90;;;;;;5071420;28;20497;-74
2023/09/29 12:32:05;;;;;;;6.80;5.43;;;24.00;99.90;;;;;;5071955;28;20636;-75
2023/09/29 12:34:34;;;;;;;6.73;5.30;;;23.80;99.90;;;;;;5072141;28;20307;-73
2023/09/29 12:37:00;;;;;;;6.27;5.60;;;23.70;99.90;;;;;;5072163;28;20781;-73
2023/09/29 12:39:26;;;;;;;6.23;5.33;;;23.60;99.90;;;;;;5093881;22;21044;-70